Portada
METAR-TAF:

METAR-TAF

Aeropuertos :

Grove, Oklahoma, Estados Unidos

latitud: 36-36-19N, longitud: 094-44-19W, altitud: 254 m

Observación

El informe se hizo hace 9 minutos, a las 01:55 UTC
Viento 3 kt del norte
Temperatura 18°C
Humedad 94%
Presión 1017 hPa
Visibilidad: 16.1 km
Cielo despejado

METAR: KGMJ 290155Z AUTO 36003KT 10SM CLR 18/17 A3002 RMK AO2

Hora: 21:04 (02:04 UTC)


TAF: falta

Observaciones y pronósticos meteorológicos de más de 4000 aeropuertos (mensajes METAR y TAF).

Los puntos amarillos y rojos representan las estaciones disponibles.

Ponga el ratón en el punto deseado para ver el nombre de la estación.

Haga clic para ver las observaciones y los pronósticos meteorológicos.

Para cambiar el mapa : haga clic en los botones verdes con una cruz de color negro para hacer un zoom, en el botón verde con un guión para alejar o en las flechas verdes para mapas adyacentes.


METAR-TAF: